Time,TemperatureF,DewpointF,PressureIn,WindDirection,WindDirectionDegrees,WindSpeedMPH,WindSpeedGustMPH,Humidity,HourlyPrecipIn,Conditions,Clouds,dailyrainin,SoftwareType,DateUTC
2013-03-12 00:05:00,47.8,46.4,30.13,SSW,204,1.0,1.0,95,0.00,,,0.00,Wunderground v.1.15,2013-03-12 07:05:00,
2013-03-12 00:15:00,47.8,46.2,30.13,SE,135,1.0,1.0,94,0.00,,,0.00,Wunderground v.1.15,2013-03-12 07:15:00,
2013-03-12 00:25:00,48.0,46.4,30.13,SSW,197,0.0,1.0,94,0.00,,,0.00,Wunderground v.1.15,2013-03-12 07:25:00,
2013-03-12 00:35:00,48.1,46.5,30.12,SSE,164,1.0,4.0,94,0.00,,,0.00,Wunderground v.1.15,2013-03-12 07:35:00,
2013-03-12 00:45:00,48.3,46.7,30.12,South,175,1.0,3.0,94,0.00,,,0.00,Wunderground v.1.15,2013-03-12 07:45:00,
2013-03-12 00:55:00,48.8,46.9,30.12,SE,144,2.0,4.0,93,0.00,,,0.00,Wunderground v.1.15,2013-03-12 07:55:00,
2013-03-12 01:05:00,49.3,47.4,30.11,WSW,247,3.0,4.0,93,0.00,,,0.00,Wunderground v.1.15,2013-03-12 08:05:00,
2013-03-12 01:10:00,49.3,47.1,30.11,NNE,31,3.0,3.0,92,0.00,,,0.00,Wunderground v.1.15,2013-03-12 08:10:00,
2013-03-12 01:15:00,49.3,47.1,30.10,South,170,3.0,4.0,92,0.00,,,0.00,Wunderground v.1.15,2013-03-12 08:15:00,
2013-03-12 01:25:00,49.3,47.1,30.10,SSE,162,3.0,3.0,92,0.00,,,0.00,Wunderground v.1.15,2013-03-12 08:25:00,
2013-03-12 01:35:00,49.2,47.0,30.10,South,175,3.0,5.0,92,0.00,,,0.00,Wunderground v.1.15,2013-03-12 08:35:00,
2013-03-12 01:45:00,49.3,47.4,30.10,SE,139,3.0,5.0,93,0.00,,,0.00,Wunderground v.1.15,2013-03-12 08:45:00,
2013-03-12 01:55:00,49.2,47.3,30.10,South,175,4.0,6.0,93,0.00,,,0.00,Wunderground v.1.15,2013-03-12 08:55:00,
2013-03-12 02:05:00,49.2,47.3,30.10,SSE,160,3.0,5.0,93,0.00,,,0.00,Wunderground v.1.15,2013-03-12 09:05:00,
2013-03-12 02:15:00,49.2,47.3,30.10,SSE,150,4.0,9.0,93,0.00,,,0.00,Wunderground v.1.15,2013-03-12 09:15:00,
2013-03-12 02:25:00,49.3,47.4,30.10,South,180,3.0,4.0,93,0.00,,,0.00,Wunderground v.1.15,2013-03-12 09:25:00,
2013-03-12 02:35:00,49.4,47.5,30.10,SSW,212,3.0,14.0,93,0.00,,,0.00,Wunderground v.1.15,2013-03-12 09:35:00,
2013-03-12 02:45:00,49.5,47.6,30.10,East,93,2.0,14.0,93,0.00,,,0.00,Wunderground v.1.15,2013-03-12 09:45:00,
2013-03-12 02:55:00,49.5,47.6,30.09,South,170,3.0,14.0,93,0.00,,,0.00,Wunderground v.1.15,2013-03-12 09:55:00,
2013-03-12 03:00:00,49.6,47.7,30.09,South,175,3.0,5.0,93,0.00,,,0.00,Wunderground v.1.15,2013-03-12 10:00:00,
2013-03-12 03:10:00,49.6,47.7,30.09,SSE,160,3.0,3.0,93,0.00,,,0.00,Wunderground v.1.15,2013-03-12 10:10:00,
2013-03-12 03:15:00,49.6,47.7,30.09,South,171,3.0,5.0,93,0.00,,,0.00,Wunderground v.1.15,2013-03-12 10:15:00,
2013-03-12 03:20:00,49.6,47.7,30.09,WSW,245,3.0,4.0,93,0.00,,,0.00,Wunderground v.1.15,2013-03-12 10:20:00,
2013-03-12 03:25:00,49.7,47.8,30.09,South,175,3.0,4.0,93,0.00,,,0.00,Wunderground v.1.15,2013-03-12 10:25:00,
2013-03-12 03:35:00,49.7,47.8,30.08,SE,124,2.0,11.0,93,0.00,,,0.00,Wunderground v.1.15,2013-03-12 10:35:00,
2013-03-12 03:45:00,49.7,47.8,30.08,SSE,164,2.0,11.0,93,0.00,,,0.00,Wunderground v.1.15,2013-03-12 10:45:00,
2013-03-12 03:55:00,49.8,47.9,30.08,WSW,245,3.0,11.0,93,0.00,,,0.00,Wunderground v.1.15,2013-03-12 10:55:00,
2013-03-12 04:05:00,49.9,48.0,30.07,SW,226,2.0,3.0,93,0.00,,,0.00,Wunderground v.1.15,2013-03-12 11:05:00,
2013-03-12 04:15:00,49.9,48.0,30.07,South,189,3.0,3.0,93,0.00,,,0.00,Wunderground v.1.15,2013-03-12 11:15:00,
2013-03-12 04:25:00,49.9,48.0,30.07,SSW,193,2.0,3.0,93,0.00,,,0.00,Wunderground v.1.15,2013-03-12 11:25:00,
2013-03-12 04:35:00,50.1,47.9,30.07,South,175,3.0,5.0,92,0.00,,,0.00,Wunderground v.1.15,2013-03-12 11:35:00,
2013-03-12 04:45:00,50.4,48.2,30.07,South,185,3.0,9.0,92,0.00,,,0.00,Wunderground v.1.15,2013-03-12 11:45:00,
2013-03-12 04:55:00,50.4,47.9,30.07,SW,229,3.0,9.0,91,0.00,,,0.00,Wunderground v.1.15,2013-03-12 11:55:00,
2013-03-12 05:00:00,50.5,48.0,30.06,SSE,160,3.0,4.0,91,0.00,,,0.00,Wunderground v.1.15,2013-03-12 12:00:00,
2013-03-12 05:10:00,50.6,48.1,30.06,South,175,3.0,3.0,91,0.00,,,0.00,Wunderground v.1.15,2013-03-12 12:10:00,
2013-03-12 05:15:00,50.6,48.1,30.07,SSE,152,3.0,3.0,91,0.00,,,0.00,Wunderground v.1.15,2013-03-12 12:15:00,
2013-03-12 05:25:00,50.7,48.2,30.07,SSW,197,3.0,4.0,91,0.00,,,0.00,Wunderground v.1.15,2013-03-12 12:25:00,
2013-03-12 05:35:00,50.8,48.3,30.07,South,170,2.0,6.0,91,0.00,,,0.00,Wunderground v.1.15,2013-03-12 12:35:00,
2013-03-12 05:45:00,50.8,48.3,30.06,SSE,158,2.0,4.0,91,0.00,,,0.00,Wunderground v.1.15,2013-03-12 12:45:00,
2013-03-12 05:55:00,50.7,48.2,30.06,South,175,3.0,9.0,91,0.00,,,0.00,Wunderground v.1.15,2013-03-12 12:55:00,
2013-03-12 06:05:00,50.7,48.2,30.06,SW,232,2.0,3.0,91,0.00,,,0.00,Wunderground v.1.15,2013-03-12 13:05:00,
2013-03-12 06:15:00,50.7,48.2,30.06,SE,137,2.0,3.0,91,0.00,,,0.00,Wunderground v.1.15,2013-03-12 13:15:00,
2013-03-12 06:20:00,50.7,48.2,30.06,SSW,202,2.0,3.0,91,0.00,,,0.00,Wunderground v.1.15,2013-03-12 13:20:00,
2013-03-12 06:25:00,50.7,48.2,30.05,SSW,200,2.0,3.0,91,0.00,,,0.00,Wunderground v.1.15,2013-03-12 13:25:00,
2013-03-12 06:35:00,50.8,48.3,30.06,South,170,2.0,7.0,91,0.00,,,0.00,Wunderground v.1.15,2013-03-12 13:35:00,
2013-03-12 06:40:00,50.8,48.3,30.05,South,185,2.0,7.0,91,0.00,,,0.00,Wunderground v.1.15,2013-03-12 13:40:00,
2013-03-12 06:45:00,50.8,48.3,30.05,South,175,2.0,7.0,91,0.00,,,0.00,Wunderground v.1.15,2013-03-12 13:45:00,
2013-03-12 06:55:00,50.8,48.3,30.05,South,175,3.0,7.0,91,0.00,,,0.00,Wunderground v.1.15,2013-03-12 13:55:00,
2013-03-12 07:00:00,50.9,48.1,30.05,SSW,206,3.0,6.0,90,0.00,,,0.00,Wunderground v.1.15,2013-03-12 14:00:00,
2013-03-12 07:05:00,50.9,48.1,30.05,South,185,3.0,6.0,90,0.00,,,0.00,Wunderground v.1.15,2013-03-12 14:05:00,
2013-03-12 07:15:00,51.0,48.2,30.05,NW,311,2.0,6.0,90,0.00,,,0.00,Wunderground v.1.15,2013-03-12 14:15:00,
2013-03-12 07:25:00,51.0,48.2,30.05,SSE,163,2.0,2.0,90,0.00,,,0.00,Wunderground v.1.15,2013-03-12 14:25:00,
2013-03-12 07:35:00,51.0,48.2,30.04,SSE,165,3.0,3.0,90,0.00,,,0.00,Wunderground v.1.15,2013-03-12 14:35:00,
2013-03-12 07:45:00,51.0,48.2,30.05,SSE,150,2.0,9.0,90,0.00,,,0.00,Wunderground v.1.15,2013-03-12 14:45:00,
2013-03-12 07:55:00,51.0,48.2,30.05,SSE,161,2.0,3.0,90,0.00,,,0.00,Wunderground v.1.15,2013-03-12 14:55:00,
2013-03-12 08:05:00,51.0,48.2,30.05,North,355,2.0,2.0,90,0.00,,,0.00,Wunderground v.1.15,2013-03-12 15:05:00,
2013-03-12 08:15:00,51.0,47.9,30.05,WSW,247,3.0,4.0,89,0.00,,,0.00,Wunderground v.1.15,2013-03-12 15:15:00,
2013-03-12 08:25:00,51.0,47.9,30.05,SE,139,2.0,4.0,89,0.00,,,0.00,Wunderground v.1.15,2013-03-12 15:25:00,
2013-03-12 08:35:00,51.0,47.9,30.05,ENE,75,2.0,8.0,89,0.00,,,0.00,Wunderground v.1.15,2013-03-12 15:35:00,
2013-03-12 08:45:00,51.1,48.0,30.06,ESE,113,2.0,8.0,89,0.00,,,0.00,Wunderground v.1.15,2013-03-12 15:45:00,
2013-03-12 08:55:00,51.2,47.8,30.06,SSW,196,3.0,8.0,88,0.00,,,0.00,Wunderground v.1.15,2013-03-12 15:55:00,
2013-03-12 09:05:00,51.2,47.8,30.06,ESE,114,3.0,7.0,88,0.00,,,0.00,Wunderground v.1.15,2013-03-12 16:05:00,
2013-03-12 09:15:00,51.4,48.0,30.06,SSE,160,2.0,3.0,88,0.00,,,0.00,Wunderground v.1.15,2013-03-12 16:15:00,
2013-03-12 09:25:00,51.6,47.9,30.06,SSW,195,2.0,2.0,87,0.00,,,0.00,Wunderground v.1.15,2013-03-12 16:25:00,
2013-03-12 09:35:00,51.8,47.7,30.06,South,180,2.0,3.0,86,0.00,,,0.00,Wunderground v.1.15,2013-03-12 16:35:00,
2013-03-12 09:45:00,51.9,47.8,30.05,SSE,147,3.0,4.0,86,0.00,,,0.00,Wunderground v.1.15,2013-03-12 16:45:00,
2013-03-12 09:55:00,52.1,47.7,30.05,SSW,194,3.0,11.0,85,0.00,,,0.00,Wunderground v.1.15,2013-03-12 16:55:00,
2013-03-12 10:05:00,52.1,47.7,30.05,SSE,147,2.0,3.0,85,0.00,,,0.00,Wunderground v.1.15,2013-03-12 17:05:00,
2013-03-12 10:10:00,52.2,47.8,30.05,SSW,205,2.0,2.0,85,0.00,,,0.00,Wunderground v.1.15,2013-03-12 17:10:00,
2013-03-12 10:15:00,52.3,47.9,30.05,South,180,2.0,3.0,85,0.00,,,0.00,Wunderground v.1.15,2013-03-12 17:15:00,
2013-03-12 10:25:00,52.4,47.7,30.05,SSW,203,3.0,6.0,84,0.00,,,0.00,Wunderground v.1.15,2013-03-12 17:25:00,
2013-03-12 10:35:00,52.4,47.7,30.06,SSE,168,3.0,8.0,84,0.00,,,0.00,Wunderground v.1.15,2013-03-12 17:35:00,
2013-03-12 10:45:00,52.6,47.9,30.06,NE,43,3.0,8.0,84,0.00,,,0.00,Wunderground v.1.15,2013-03-12 17:45:00,
2013-03-12 10:55:00,52.8,47.8,30.06,South,180,3.0,8.0,83,0.00,,,0.00,Wunderground v.1.15,2013-03-12 17:55:00,
2013-03-12 11:05:00,53.0,48.0,30.06,South,170,3.0,3.0,83,0.00,,,0.00,Wunderground v.1.15,2013-03-12 18:05:00,
2013-03-12 11:10:00,53.1,48.1,30.06,East,92,3.0,3.0,83,0.00,,,0.00,Wunderground v.1.15,2013-03-12 18:10:00,
2013-03-12 11:15:00,53.2,47.8,30.06,West,278,3.0,3.0,82,0.00,,,0.00,Wunderground v.1.15,2013-03-12 18:15:00,
2013-03-12 11:25:00,53.4,47.7,30.06,SW,214,3.0,3.0,81,0.00,,,0.00,Wunderground v.1.15,2013-03-12 18:25:00,
2013-03-12 11:35:00,53.8,47.8,30.06,West,259,3.0,9.0,80,0.00,,,0.00,Wunderground v.1.15,2013-03-12 18:35:00,
2013-03-12 11:45:00,53.9,47.9,30.06,South,189,4.0,9.0,80,0.00,,,0.00,Wunderground v.1.15,2013-03-12 18:45:00,
2013-03-12 11:55:00,54.2,47.8,30.07,SSW,199,3.0,7.0,79,0.00,,,0.00,Wunderground v.1.15,2013-03-12 18:55:00,
2013-03-12 12:05:00,54.6,47.9,30.07,SW,228,4.0,4.0,78,0.00,,,0.00,Wunderground v.1.15,2013-03-12 19:05:00,
2013-03-12 12:15:00,55.0,47.9,30.07,South,190,4.0,6.0,77,0.00,,,0.00,Wunderground v.1.15,2013-03-12 19:15:00,
2013-03-12 12:20:00,54.9,47.8,30.06,South,175,4.0,4.0,77,0.00,,,0.00,Wunderground v.1.15,2013-03-12 19:20:00,
2013-03-12 12:25:00,55.0,47.9,30.07,SSW,204,4.0,5.0,77,0.00,,,0.00,Wunderground v.1.15,2013-03-12 19:25:00,
2013-03-12 12:35:00,54.9,47.5,30.07,SSE,149,4.0,7.0,76,0.00,,,0.00,Wunderground v.1.15,2013-03-12 19:35:00,
2013-03-12 12:45:00,54.7,47.6,30.07,SSW,211,4.0,12.0,77,0.00,,,0.00,Wunderground v.1.15,2013-03-12 19:45:00,
2013-03-12 12:55:00,54.6,47.9,30.07,WSW,249,4.0,12.0,78,0.00,,,0.00,Wunderground v.1.15,2013-03-12 19:55:00,
2013-03-12 13:05:00,54.4,48.0,30.07,East,100,3.0,3.0,79,0.00,,,0.00,Wunderground v.1.15,2013-03-12 20:05:00,
2013-03-12 13:15:00,54.1,48.1,30.07,WNW,303,3.0,5.0,80,0.00,,,0.00,Wunderground v.1.15,2013-03-12 20:15:00,
2013-03-12 13:25:00,53.8,48.8,30.07,SW,216,3.0,8.0,83,0.00,,,0.00,Wunderground v.1.15,2013-03-12 20:25:00,
2013-03-12 13:35:00,53.5,48.8,30.07,South,185,3.0,10.0,84,0.00,,,0.00,Wunderground v.1.15,2013-03-12 20:35:00,
2013-03-12 13:45:00,53.4,48.7,30.07,South,180,3.0,10.0,84,0.00,,,0.00,Wunderground v.1.15,2013-03-12 20:45:00,
2013-03-12 13:55:00,53.9,48.5,30.07,SSW,194,3.0,10.0,82,0.00,,,0.00,Wunderground v.1.15,2013-03-12 20:55:00,
2013-03-12 14:00:00,54.1,48.4,30.07,North,353,3.0,3.0,81,0.00,,,0.00,Wunderground v.1.15,2013-03-12 21:00:00,
2013-03-12 14:05:00,54.2,48.5,30.07,SE,133,3.0,4.0,81,0.00,,,0.00,Wunderground v.1.15,2013-03-12 21:05:00,
2013-03-12 14:15:00,54.4,48.7,30.07,SSW,208,3.0,6.0,81,0.00,,,0.00,Wunderground v.1.15,2013-03-12 21:15:00,
2013-03-12 14:25:00,54.3,48.6,30.07,South,175,3.0,6.0,81,0.00,,,0.00,Wunderground v.1.15,2013-03-12 21:25:00,
2013-03-12 14:30:00,54.3,48.9,30.07,SSE,168,3.0,3.0,82,0.00,,,0.00,Wunderground v.1.15,2013-03-12 21:30:00,
2013-03-12 14:35:00,54.2,49.1,30.07,ESE,108,3.0,10.0,83,0.00,,,0.00,Wunderground v.1.15,2013-03-12 21:35:00,
2013-03-12 14:45:00,53.9,49.5,30.06,SE,142,3.0,10.0,85,0.00,,,0.00,Wunderground v.1.15,2013-03-12 21:45:00,
2013-03-12 14:55:00,53.5,49.7,30.07,South,190,2.0,10.0,87,0.00,,,0.00,Wunderground v.1.15,2013-03-12 21:55:00,
2013-03-12 15:05:00,53.1,49.6,30.06,SSW,196,2.0,4.0,88,0.00,,,0.00,Wunderground v.1.15,2013-03-12 22:05:00,
2013-03-12 15:15:00,52.6,49.4,30.06,SSW,200,1.0,3.0,89,0.00,,,0.00,Wunderground v.1.15,2013-03-12 22:15:00,
2013-03-12 15:25:00,52.3,49.8,30.06,SSE,162,1.0,5.0,91,0.00,,,0.00,Wunderground v.1.15,2013-03-12 22:25:00,
2013-03-12 15:35:00,52.1,49.8,30.06,SSE,147,1.0,8.0,92,0.00,,,0.00,Wunderground v.1.15,2013-03-12 22:35:00,
2013-03-12 15:45:00,52.2,50.5,30.06,SSW,195,1.0,8.0,94,0.00,,,0.01,Wunderground v.1.15,2013-03-12 22:45:00,
2013-03-12 15:55:00,52.2,50.5,30.07,North,352,1.0,8.0,94,0.00,,,0.01,Wunderground v.1.15,2013-03-12 22:55:00,
2013-03-12 16:00:00,52.2,50.5,30.06,SSW,202,1.0,3.0,94,0.00,,,0.01,Wunderground v.1.15,2013-03-12 23:00:00,
2013-03-12 16:05:00,52.1,50.4,30.07,SSW,209,2.0,3.0,94,0.00,,,0.01,Wunderground v.1.15,2013-03-12 23:05:00,
2013-03-12 16:15:00,52.1,50.7,30.07,South,175,1.0,3.0,95,0.00,,,0.01,Wunderground v.1.15,2013-03-12 23:15:00,
2013-03-12 16:25:00,51.8,50.4,30.07,SSE,153,2.0,2.0,95,0.00,,,0.01,Wunderground v.1.15,2013-03-12 23:25:00,
2013-03-12 16:35:00,51.7,50.3,30.07,South,175,1.0,7.0,95,0.00,,,0.01,Wunderground v.1.15,2013-03-12 23:35:00,
2013-03-12 16:45:00,51.6,50.2,30.07,SSW,212,1.0,7.0,95,0.00,,,0.01,Wunderground v.1.15,2013-03-12 23:45:00,
2013-03-12 16:55:00,51.3,49.9,30.07,SE,138,2.0,7.0,95,0.00,,,0.02,Wunderground v.1.15,2013-03-12 23:55:00,
2013-03-12 17:05:00,51.0,49.9,30.07,ENE,73,2.0,3.0,96,0.00,,,0.02,Wunderground v.1.15,2013-03-13 00:05:00,
2013-03-12 17:15:00,50.8,49.7,30.06,South,180,2.0,6.0,96,0.00,,,0.02,Wunderground v.1.15,2013-03-13 00:15:00,
2013-03-12 17:25:00,50.6,49.5,30.07,South,180,2.0,2.0,96,0.00,,,0.02,Wunderground v.1.15,2013-03-13 00:25:00,
2013-03-12 17:30:00,50.5,49.4,30.06,SSE,161,1.0,3.0,96,0.00,,,0.03,Wunderground v.1.15,2013-03-13 00:30:00,
2013-03-12 17:35:00,50.5,49.4,30.06,SSW,198,2.0,6.0,96,0.00,,,0.03,Wunderground v.1.15,2013-03-13 00:35:00,
2013-03-12 17:45:00,50.3,49.2,30.06,SSW,198,1.0,6.0,96,0.04,,,0.04,Wunderground v.1.15,2013-03-13 00:45:00,
2013-03-12 17:50:00,50.4,49.3,30.06,South,185,1.0,1.0,96,0.04,,,0.04,Wunderground v.1.15,2013-03-13 00:50:00,
2013-03-12 17:55:00,50.4,49.3,30.06,South,185,1.0,2.0,96,0.04,,,0.04,Wunderground v.1.15,2013-03-13 00:55:00,
2013-03-12 18:05:00,50.3,49.2,30.06,SSE,147,1.0,2.0,96,0.00,,,0.04,Wunderground v.1.15,2013-03-13 01:05:00,
2013-03-12 18:15:00,50.3,49.2,30.06,SSE,151,2.0,3.0,96,0.00,,,0.04,Wunderground v.1.15,2013-03-13 01:15:00,
2013-03-12 18:25:00,50.1,49.0,30.06,South,185,2.0,2.0,96,0.00,,,0.04,Wunderground v.1.15,2013-03-13 01:25:00,
2013-03-12 18:30:00,50.1,49.3,30.05,South,171,2.0,2.0,97,0.00,,,0.05,Wunderground v.1.15,2013-03-13 01:30:00,
2013-03-12 18:35:00,50.1,49.3,30.06,SSE,164,2.0,7.0,97,0.00,,,0.05,Wunderground v.1.15,2013-03-13 01:35:00,
2013-03-12 18:45:00,49.9,49.1,30.06,SSE,153,2.0,7.0,97,0.00,,,0.05,Wunderground v.1.15,2013-03-13 01:45:00,
2013-03-12 18:55:00,49.8,48.7,30.06,SSW,194,2.0,7.0,96,0.00,,,0.05,Wunderground v.1.15,2013-03-13 01:55:00,
2013-03-12 19:00:00,49.7,48.6,30.06,SSE,157,2.0,2.0,96,0.00,,,0.06,Wunderground v.1.15,2013-03-13 02:00:00,
2013-03-12 19:10:00,49.7,48.9,30.06,West,270,2.0,2.0,97,0.00,,,0.06,Wunderground v.1.15,2013-03-13 02:10:00,
2013-03-12 19:15:00,49.7,48.9,30.06,NNE,20,2.0,2.0,97,0.00,,,0.06,Wunderground v.1.15,2013-03-13 02:15:00,
2013-03-12 19:25:00,49.6,48.8,30.06,South,175,2.0,2.0,97,0.00,,,0.06,Wunderground v.1.15,2013-03-13 02:25:00,
2013-03-12 19:35:00,49.6,48.8,30.06,SSE,158,2.0,8.0,97,0.00,,,0.06,Wunderground v.1.15,2013-03-13 02:35:00,
2013-03-12 19:40:00,49.5,48.7,30.06,SW,216,2.0,8.0,97,0.00,,,0.06,Wunderground v.1.15,2013-03-13 02:40:00,
2013-03-12 19:45:00,49.5,48.7,30.07,South,175,2.0,8.0,97,0.00,,,0.06,Wunderground v.1.15,2013-03-13 02:45:00,
2013-03-12 19:55:00,49.5,48.7,30.07,SE,133,2.0,8.0,97,0.00,,,0.06,Wunderground v.1.15,2013-03-13 02:55:00,
2013-03-12 20:00:00,49.6,48.8,30.07,SE,142,2.0,2.0,97,0.00,,,0.06,Wunderground v.1.15,2013-03-13 03:00:00,
2013-03-12 20:10:00,49.6,48.8,30.07,WNW,283,2.0,2.0,97,0.00,,,0.06,Wunderground v.1.15,2013-03-13 03:10:00,
2013-03-12 20:15:00,49.6,48.8,30.07,South,175,2.0,2.0,97,0.00,,,0.06,Wunderground v.1.15,2013-03-13 03:15:00,
2013-03-12 20:25:00,49.7,48.6,30.08,SSE,158,2.0,2.0,96,0.00,,,0.06,Wunderground v.1.15,2013-03-13 03:25:00,
2013-03-12 20:35:00,49.9,48.8,30.08,South,185,2.0,7.0,96,0.00,,,0.06,Wunderground v.1.15,2013-03-13 03:35:00,
2013-03-12 20:45:00,50.0,49.2,30.08,NNW,346,3.0,7.0,97,0.00,,,0.06,Wunderground v.1.15,2013-03-13 03:45:00,
2013-03-12 20:55:00,50.1,49.3,30.08,SW,216,3.0,7.0,97,0.00,,,0.06,Wunderground v.1.15,2013-03-13 03:55:00,
2013-03-12 21:00:00,50.1,49.3,30.08,SSW,206,3.0,3.0,97,0.00,,,0.06,Wunderground v.1.15,2013-03-13 04:00:00,
2013-03-12 21:05:00,50.1,49.3,30.08,West,264,3.0,3.0,97,0.00,,,0.06,Wunderground v.1.15,2013-03-13 04:05:00,
2013-03-12 21:10:00,50.1,49.3,30.08,SSW,204,3.0,3.0,97,0.00,,,0.06,Wunderground v.1.15,2013-03-13 04:10:00,
2013-03-12 21:15:00,50.1,49.0,30.08,SE,141,2.0,8.0,96,0.00,,,0.06,Wunderground v.1.15,2013-03-13 04:15:00,
2013-03-12 21:25:00,50.1,49.0,30.08,SSW,210,3.0,7.0,96,0.00,,,0.06,Wunderground v.1.15,2013-03-13 04:25:00,
2013-03-12 21:35:00,50.1,49.0,30.08,SSE,149,3.0,9.0,96,0.00,,,0.06,Wunderground v.1.15,2013-03-13 04:35:00,
2013-03-12 21:45:00,50.1,49.0,30.08,SSW,193,4.0,9.0,96,0.00,,,0.06,Wunderground v.1.15,2013-03-13 04:45:00,
2013-03-12 21:55:00,50.1,49.0,30.08,SSW,205,3.0,9.0,96,0.00,,,0.06,Wunderground v.1.15,2013-03-13 04:55:00,
2013-03-12 22:05:00,50.1,48.7,30.08,SSW,206,4.0,4.0,95,0.00,,,0.06,Wunderground v.1.15,2013-03-13 05:05:00,
2013-03-12 22:10:00,50.0,48.6,30.08,SSW,192,3.0,3.0,95,0.00,,,0.06,Wunderground v.1.15,2013-03-13 05:10:00,
2013-03-12 22:15:00,50.1,48.7,30.08,South,175,4.0,5.0,95,0.00,,,0.06,Wunderground v.1.15,2013-03-13 05:15:00,
2013-03-12 22:25:00,50.1,48.7,30.08,SW,234,3.0,4.0,95,0.00,,,0.06,Wunderground v.1.15,2013-03-13 05:25:00,
2013-03-12 22:35:00,50.0,48.6,30.08,SW,216,3.0,12.0,95,0.00,,,0.06,Wunderground v.1.15,2013-03-13 05:35:00,
2013-03-12 22:45:00,50.1,48.7,30.08,SSW,200,2.0,12.0,95,0.00,,,0.06,Wunderground v.1.15,2013-03-13 05:45:00,
2013-03-12 22:55:00,50.1,48.7,30.09,SSW,208,3.0,12.0,95,0.00,,,0.06,Wunderground v.1.15,2013-03-13 05:55:00,
2013-03-12 23:05:00,50.1,48.7,30.08,South,170,3.0,5.0,95,0.00,,,0.06,Wunderground v.1.15,2013-03-13 06:05:00,
2013-03-12 23:15:00,50.0,48.6,30.09,South,185,3.0,4.0,95,0.00,,,0.06,Wunderground v.1.15,2013-03-13 06:15:00,
2013-03-12 23:25:00,50.0,48.6,30.08,SSW,204,2.0,3.0,95,0.00,,,0.06,Wunderground v.1.15,2013-03-13 06:25:00,
2013-03-12 23:35:00,50.0,48.6,30.08,SSW,205,3.0,4.0,95,0.00,,,0.06,Wunderground v.1.15,2013-03-13 06:35:00,
2013-03-12 23:45:00,50.0,48.6,30.08,SE,132,3.0,10.0,95,0.00,,,0.06,Wunderground v.1.15,2013-03-13 06:45:00,
2013-03-12 23:55:00,49.9,48.2,30.08,SE,141,3.0,10.0,94,0.00,,,0.06,Wunderground v.1.15,2013-03-13 06:55:00,